Time;durP1;ratioP1;P1;durP2;ratioP2;P2;SDS_P1;SDS_P2;PMS_P1;PMS_P2;Temp;Humidity;BMP_temperature;BMP_pressure;BME280_temperature;BME280_humidity;BME280_pressure;Samples;Min_cycle;Max_cycle;Signal;HPM_P1;HPM_P2
2022/10/16 00:01:16;;;;;;;5.05;2.05;;;;;;;;;;5051316;28;20534;-62
2022/10/16 00:03:43;;;;;;;4.25;1.88;;;;;;;;;;5033478;28;20068;-62
2022/10/16 00:06:10;;;;;;;4.13;1.80;;;;;;;;;;5048976;28;20383;-62
2022/10/16 00:08:35;;;;;;;2.10;1.50;;;;;;;;;;5049784;28;20063;-62
2022/10/16 00:11:03;;;;;;;3.30;1.58;;;;;;;;;;5049761;28;20060;-61
2022/10/16 00:13:30;;;;;;;2.72;1.50;;;;;;;;;;5050251;28;20060;-62
2022/10/16 00:15:56;;;;;;;2.17;1.30;;;;;;;;;;5049908;28;20021;-62
2022/10/16 00:18:22;;;;;;;1.90;1.35;;;;;;;;;;5050479;28;20039;-62
2022/10/16 00:20:47;;;;;;;2.40;1.23;;;;;;;;;;5050122;28;20128;-62
2022/10/16 00:23:13;;;;;;;1.67;1.15;;;;;;;;;;5051323;28;20052;-62
2022/10/16 00:25:38;;;;;;;1.60;1.25;;;;;;;;;;5069627;28;20422;-62
2022/10/16 00:28:03;;;;;;;2.88;1.30;;;;;;;;;;5069096;28;20082;-62
2022/10/16 00:30:29;;;;;;;2.42;1.25;;;;;;;;;;5070107;28;20024;-61
2022/10/16 00:32:55;;;;;;;2.38;1.30;;;;;;;;;;5050002;28;20079;-62
2022/10/16 00:35:20;;;;;;;1.70;1.13;;;;;;;;;;5049696;28;20378;-62
2022/10/16 00:37:45;;;;;;;1.63;1.20;;;;;;;;;;5049326;28;20036;-62
2022/10/16 00:40:11;;;;;;;5.25;1.20;;;;;;;;;;5051247;28;20615;-62
2022/10/16 00:42:36;;;;;;;1.20;1.10;;;;;;;;;;5068983;28;20061;-62
2022/10/16 00:45:02;;;;;;;2.92;1.50;;;;;;;;;;5069223;28;20047;-62
2022/10/16 00:47:28;;;;;;;2.00;1.00;;;;;;;;;;5069704;28;20040;-63
2022/10/16 00:50:01;;;;;;;2.90;1.30;;;;;;;;;;5035176;28;20033;-62
2022/10/16 00:52:27;;;;;;;1.70;1.42;;;;;;;;;;5029272;28;20095;-61
2022/10/16 00:54:54;;;;;;;2.38;1.42;;;;;;;;;;5029494;28;20021;-61
2022/10/16 00:57:19;;;;;;;1.77;1.33;;;;;;;;;;5034585;28;20029;-62
2022/10/16 00:59:45;;;;;;;1.88;1.25;;;;;;;;;;5047872;28;20033;-62
2022/10/16 01:02:14;;;;;;;2.97;1.30;;;;;;;;;;5048916;28;20029;-62
2022/10/16 01:04:43;;;;;;;2.38;1.45;;;;;;;;;;5048771;28;20072;-62
2022/10/16 01:07:41;;;;;;;2.03;1.25;;;;;;;;;;5049049;28;20044;-61
2022/10/16 01:10:14;;;;;;;2.15;1.50;;;;;;;;;;5047896;28;20021;-61
2022/10/16 01:12:59;;;;;;;1.92;1.50;;;;;;;;;;5049303;28;20029;-62
2022/10/16 01:15:33;;;;;;;2.05;1.13;;;;;;;;;;5048055;28;20613;-62
2022/10/16 01:18:20;;;;;;;4.38;1.50;;;;;;;;;;5047498;28;20501;-61
2022/10/16 01:20:54;;;;;;;2.10;1.40;;;;;;;;;;5048722;28;20040;-61
2022/10/16 01:23:25;;;;;;;2.50;1.58;;;;;;;;;;5050602;28;20463;-62
2022/10/16 01:26:21;;;;;;;3.17;1.63;;;;;;;;;;5046035;28;20705;-62
2022/10/16 01:28:55;;;;;;;2.85;1.75;;;;;;;;;;5048353;28;20028;-61
2022/10/16 01:31:26;;;;;;;4.03;1.73;;;;;;;;;;5048577;28;20037;-62
2022/10/16 01:34:06;;;;;;;5.45;1.67;;;;;;;;;;5048786;28;20032;-62
2022/10/16 01:36:38;;;;;;;2.58;1.58;;;;;;;;;;5041135;28;20036;-62
2022/10/16 01:39:08;;;;;;;2.53;1.75;;;;;;;;;;5047736;28;20079;-62
2022/10/16 01:41:38;;;;;;;3.05;1.77;;;;;;;;;;5047858;28;20029;-62
2022/10/16 01:44:32;;;;;;;7.35;1.83;;;;;;;;;;5047967;28;20091;-62
2022/10/16 01:46:58;;;;;;;5.30;1.98;;;;;;;;;;5052258;28;20040;-62
2022/10/16 01:49:28;;;;;;;2.90;1.88;;;;;;;;;;5068052;28;20456;-62
2022/10/16 01:51:57;;;;;;;3.97;1.92;;;;;;;;;;5067619;28;20031;-61
2022/10/16 01:54:26;;;;;;;2.97;1.95;;;;;;;;;;5068263;28;20097;-63
2022/10/16 01:56:53;;;;;;;4.53;2.00;;;;;;;;;;5067636;28;20531;-62
2022/10/16 01:59:21;;;;;;;3.40;2.05;;;;;;;;;;5067556;28;20040;-62
2022/10/16 02:01:57;;;;;;;3.58;2.20;;;;;;;;;;5067883;28;20047;-62
2022/10/16 02:04:36;;;;;;;4.30;2.47;;;;;;;;;;5045438;28;20052;-62
2022/10/16 02:07:02;;;;;;;3.42;2.28;;;;;;;;;;5047819;28;20025;-62
2022/10/16 02:09:30;;;;;;;8.43;2.38;;;;;;;;;;5048173;28;20021;-62
2022/10/16 02:11:59;;;;;;;4.40;2.15;;;;;;;;;;5047426;28;20067;-62
2022/10/16 02:14:26;;;;;;;5.75;2.40;;;;;;;;;;5047699;28;20767;-62
2022/10/16 02:16:51;;;;;;;5.03;2.40;;;;;;;;;;5059936;28;20128;-61
2022/10/16 02:19:21;;;;;;;4.45;2.17;;;;;;;;;;5067553;28;20174;-62
2022/10/16 02:21:57;;;;;;;2.50;1.75;;;;;;;;;;5067376;28;20359;-62
2022/10/16 02:24:22;;;;;;;4.18;2.00;;;;;;;;;;5067574;28;20036;-62
2022/10/16 02:26:52;;;;;;;2.88;1.83;;;;;;;;;;5065913;28;20033;-62
2022/10/16 02:29:23;;;;;;;4.10;1.83;;;;;;;;;;5060815;28;20039;-62
2022/10/16 02:31:52;;;;;;;3.35;1.70;;;;;;;;;;5026669;28;20572;-61
2022/10/16 02:34:20;;;;;;;1.90;1.52;;;;;;;;;;5027638;28;20025;-62
2022/10/16 02:36:48;;;;;;;3.13;1.85;;;;;;;;;;5029539;28;20033;-62
2022/10/16 02:39:14;;;;;;;2.85;1.70;;;;;;;;;;5033287;28;20021;-62
2022/10/16 02:41:40;;;;;;;3.63;1.80;;;;;;;;;;5047346;28;20049;-61
2022/10/16 02:44:05;;;;;;;6.22;1.73;;;;;;;;;;5047051;28;20056;-62
2022/10/16 02:46:31;;;;;;;3.28;1.80;;;;;;;;;;5051027;28;20033;-62
2022/10/16 02:48:56;;;;;;;3.58;1.75;;;;;;;;;;5067473;28;20020;-62
2022/10/16 02:51:21;;;;;;;2.92;1.73;;;;;;;;;;5067369;28;20024;-62
2022/10/16 02:53:46;;;;;;;2.50;1.50;;;;;;;;;;5067046;28;20036;-61
2022/10/16 02:56:12;;;;;;;2.85;2.10;;;;;;;;;;5066964;28;20059;-62
2022/10/16 02:58:37;;;;;;;2.90;1.92;;;;;;;;;;5057363;28;20037;-61
2022/10/16 03:01:02;;;;;;;3.90;1.92;;;;;;;;;;5029896;28;20017;-62
2022/10/16 03:03:28;;;;;;;4.82;1.80;;;;;;;;;;5027684;28;20752;-62
2022/10/16 03:05:53;;;;;;;2.75;1.80;;;;;;;;;;5026983;28;20395;-62
2022/10/16 03:08:23;;;;;;;2.90;1.77;;;;;;;;;;5026751;28;20121;-62
2022/10/16 03:10:48;;;;;;;2.40;1.80;;;;;;;;;;5026610;28;20040;-62
2022/10/16 03:13:14;;;;;;;4.72;2.00;;;;;;;;;;5026953;28;20489;-62
2022/10/16 03:15:39;;;;;;;3.80;2.15;;;;;;;;;;5027043;28;20028;-62
2022/10/16 03:18:04;;;;;;;2.97;2.00;;;;;;;;;;5026948;28;20629;-62
2022/10/16 03:20:29;;;;;;;3.03;1.85;;;;;;;;;;5036388;28;20140;-62
2022/10/16 03:22:55;;;;;;;7.50;2.00;;;;;;;;;;5045327;28;20037;-62
2022/10/16 03:25:20;;;;;;;3.75;1.85;;;;;;;;;;5046987;28;20119;-62
2022/10/16 03:27:45;;;;;;;4.18;1.70;;;;;;;;;;5046823;28;20033;-62
2022/10/16 03:30:11;;;;;;;4.15;1.90;;;;;;;;;;5047358;28;20033;-62
2022/10/16 03:32:36;;;;;;;3.65;1.95;;;;;;;;;;5066233;28;20037;-61
2022/10/16 03:35:02;;;;;;;2.38;1.60;;;;;;;;;;5066554;28;20040;-62
2022/10/16 03:37:27;;;;;;;4.65;2.10;;;;;;;;;;5066194;28;20035;-61
2022/10/16 03:39:53;;;;;;;7.47;1.77;;;;;;;;;;5055108;28;20071;-62
2022/10/16 03:42:18;;;;;;;2.65;1.75;;;;;;;;;;5046485;28;20019;-62
2022/10/16 03:44:43;;;;;;;3.22;2.17;;;;;;;;;;5046362;28;20040;-62
2022/10/16 03:47:09;;;;;;;2.58;1.80;;;;;;;;;;5046854;28;20506;-61
2022/10/16 03:49:34;;;;;;;5.30;2.35;;;;;;;;;;5046286;28;20112;-62
2022/10/16 03:51:59;;;;;;;3.60;2.03;;;;;;;;;;5046663;28;20037;-62
2022/10/16 03:54:25;;;;;;;5.53;1.88;;;;;;;;;;5046719;28;20029;-62
2022/10/16 03:56:50;;;;;;;3.33;1.98;;;;;;;;;;5044854;28;20033;-62
2022/10/16 03:59:15;;;;;;;6.07;2.50;;;;;;;;;;5046348;28;20029;-61
2022/10/16 04:01:40;;;;;;;3.65;2.25;;;;;;;;;;5046415;28;20037;-62
2022/10/16 04:04:06;;;;;;;2.80;1.80;;;;;;;;;;5046681;28;20032;-62
2022/10/16 04:06:31;;;;;;;5.18;2.15;;;;;;;;;;5050043;28;20047;-61
2022/10/16 04:08:56;;;;;;;4.95;2.20;;;;;;;;;;5038744;28;20076;-62
2022/10/16 04:11:22;;;;;;;3.90;1.95;;;;;;;;;;5045069;28;20513;-62
2022/10/16 04:13:47;;;;;;;3.45;1.90;;;;;;;;;;5061988;28;20035;-62
2022/10/16 04:16:13;;;;;;;5.53;2.28;;;;;;;;;;5069812;28;20036;-62
2022/10/16 04:18:38;;;;;;;3.17;1.88;;;;;;;;;;5070123;28;20025;-62
2022/10/16 04:21:05;;;;;;;3.35;1.67;;;;;;;;;;5062080;28;20041;-62
2022/10/16 04:23:31;;;;;;;3.70;1.83;;;;;;;;;;5049788;28;20047;-62
2022/10/16 04:25:56;;;;;;;2.83;1.77;;;;;;;;;;5049683;28;20427;-62
2022/10/16 04:28:21;;;;;;;3.08;2.00;;;;;;;;;;5049674;28;20040;-62
2022/10/16 04:30:47;;;;;;;3.72;1.70;;;;;;;;;;5039560;28;20029;-62
2022/10/16 04:33:12;;;;;;;3.53;1.85;;;;;;;;;;5029212;28;20041;-62
2022/10/16 04:35:38;;;;;;;1.73;1.50;;;;;;;;;;5029634;28;20069;-62
2022/10/16 04:38:03;;;;;;;2.72;1.58;;;;;;;;;;5030271;28;20239;-61
2022/10/16 04:40:32;;;;;;;2.65;2.00;;;;;;;;;;5048360;28;20037;-62
2022/10/16 04:42:58;;;;;;;3.75;1.95;;;;;;;;;;5049165;28;20049;-62
2022/10/16 04:45:23;;;;;;;4.22;1.88;;;;;;;;;;5049862;28;20082;-61
2022/10/16 04:47:48;;;;;;;2.85;2.00;;;;;;;;;;5049081;28;20036;-62
2022/10/16 04:50:14;;;;;;;6.18;2.00;;;;;;;;;;5049349;28;20099;-62
2022/10/16 04:52:39;;;;;;;6.75;1.90;;;;;;;;;;5047352;28;20549;-62
2022/10/16 04:55:05;;;;;;;4.13;1.85;;;;;;;;;;5048978;28;20060;-62
2022/10/16 04:57:30;;;;;;;6.80;1.95;;;;;;;;;;5049835;28;20099;-62
2022/10/16 04:59:56;;;;;;;3.60;1.80;;;;;;;;;;5047733;28;20051;-62
2022/10/16 05:02:21;;;;;;;3.10;2.10;;;;;;;;;;5055900;28;20033;-62
2022/10/16 05:04:46;;;;;;;5.32;1.92;;;;;;;;;;5048267;28;20044;-62
2022/10/16 05:07:12;;;;;;;2.53;1.88;;;;;;;;;;5047631;28;20040;-61
2022/10/16 05:09:37;;;;;;;5.88;2.38;;;;;;;;;;5056084;28;20475;-62
2022/10/16 05:12:03;;;;;;;3.63;2.35;;;;;;;;;;5040625;28;20065;-61
2022/10/16 05:14:29;;;;;;;3.92;2.35;;;;;;;;;;5067910;28;20059;-61
2022/10/16 05:16:54;;;;;;;3.28;1.95;;;;;;;;;;5068645;28;20513;-62
2022/10/16 05:19:19;;;;;;;4.93;2.25;;;;;;;;;;5068795;28;20048;-62
2022/10/16 05:21:45;;;;;;;3.65;2.08;;;;;;;;;;5059368;28;20032;-62
2022/10/16 05:24:10;;;;;;;5.05;2.42;;;;;;;;;;5048766;28;20421;-62
2022/10/16 05:26:35;;;;;;;4.45;2.30;;;;;;;;;;5048192;28;20044;-62
2022/10/16 05:29:00;;;;;;;5.57;2.25;;;;;;;;;;5048321;28;20569;-61
2022/10/16 05:31:26;;;;;;;5.32;2.40;;;;;;;;;;5047998;28;20041;-62
2022/10/16 05:33:51;;;;;;;3.53;2.00;;;;;;;;;;5048228;28;20056;-61
2022/10/16 05:36:18;;;;;;;3.97;2.28;;;;;;;;;;5048936;28;20108;-61
2022/10/16 05:38:43;;;;;;;3.65;2.38;;;;;;;;;;5048093;28;20041;-61
2022/10/16 05:41:08;;;;;;;5.78;2.80;;;;;;;;;;5047848;28;20102;-62
2022/10/16 05:43:34;;;;;;;3.85;2.15;;;;;;;;;;5048130;28;20061;-61
2022/10/16 05:46:04;;;;;;;7.47;2.72;;;;;;;;;;5048068;28;20075;-62
2022/10/16 05:48:30;;;;;;;4.13;2.08;;;;;;;;;;5047072;28;20578;-62
2022/10/16 05:51:02;;;;;;;3.95;2.38;;;;;;;;;;5048318;28;20032;-62
2022/10/16 05:53:29;;;;;;;7.18;2.60;;;;;;;;;;5047788;28;20129;-62
2022/10/16 05:55:56;;;;;;;5.22;2.42;;;;;;;;;;5047694;28;20064;-62
2022/10/16 05:58:22;;;;;;;4.40;2.70;;;;;;;;;;5048281;28;20032;-61
2022/10/16 06:01:10;;;;;;;5.72;3.05;;;;;;;;;;5048243;28;20028;-62
2022/10/16 06:03:36;;;;;;;8.23;3.60;;;;;;;;;;5046703;28;20395;-62
2022/10/16 06:06:16;;;;;;;8.98;3.30;;;;;;;;;;5047136;28;20044;-61
2022/10/16 06:08:43;;;;;;;6.03;3.25;;;;;;;;;;5048277;28;20106;-62
2022/10/16 06:11:11;;;;;;;8.02;3.60;;;;;;;;;;5047805;28;20541;-62
2022/10/16 06:13:36;;;;;;;7.82;4.07;;;;;;;;;;5047519;28;20041;-62
2022/10/16 06:16:03;;;;;;;10.23;3.72;;;;;;;;;;5046450;28;20032;-62
2022/10/16 06:18:29;;;;;;;8.00;3.85;;;;;;;;;;5047995;28;20021;-62
2022/10/16 06:20:56;;;;;;;8.88;3.88;;;;;;;;;;5047490;28;20145;-62
2022/10/16 06:23:22;;;;;;;7.60;3.90;;;;;;;;;;5047062;28;20090;-62
2022/10/16 06:25:48;;;;;;;8.32;3.78;;;;;;;;;;5046651;28;20068;-62
2022/10/16 06:28:14;;;;;;;6.95;3.38;;;;;;;;;;5047345;28;20491;-62
2022/10/16 06:30:40;;;;;;;8.90;3.60;;;;;;;;;;5045788;28;20138;-62
2022/10/16 06:33:05;;;;;;;9.15;3.38;;;;;;;;;;5046706;28;20139;-61
2022/10/16 06:35:31;;;;;;;5.63;3.40;;;;;;;;;;5046148;28;20112;-62
2022/10/16 06:37:57;;;;;;;6.22;3.00;;;;;;;;;;5046940;28;20043;-61
2022/10/16 06:40:22;;;;;;;5.25;3.08;;;;;;;;;;5047573;28;20033;-62
2022/10/16 06:42:48;;;;;;;8.10;3.15;;;;;;;;;;5047265;28;20060;-62
2022/10/16 06:45:13;;;;;;;5.10;2.53;;;;;;;;;;5045271;28;20041;-62
2022/10/16 06:47:38;;;;;;;5.47;2.97;;;;;;;;;;5045646;28;20048;-61
2022/10/16 06:50:06;;;;;;;9.18;3.10;;;;;;;;;;5044041;28;20494;-61
2022/10/16 06:52:33;;;;;;;7.93;2.92;;;;;;;;;;5043370;28;20534;-62
2022/10/16 06:54:58;;;;;;;4.75;2.80;;;;;;;;;;5037618;28;20017;-62
2022/10/16 06:57:23;;;;;;;7.25;3.20;;;;;;;;;;5044143;28;20025;-62
2022/10/16 06:59:49;;;;;;;6.30;3.17;;;;;;;;;;5044519;28;20119;-62
2022/10/16 07:02:14;;;;;;;6.50;3.10;;;;;;;;;;5046008;28;20528;-62
2022/10/16 07:04:39;;;;;;;9.25;3.50;;;;;;;;;;5066852;28;20712;-62
2022/10/16 07:07:05;;;;;;;5.85;3.20;;;;;;;;;;5065387;28;20035;-62
2022/10/16 07:09:30;;;;;;;7.10;3.30;;;;;;;;;;5066834;28;20056;-62
2022/10/16 07:11:55;;;;;;;7.90;3.35;;;;;;;;;;5065504;28;20032;-62
2022/10/16 07:14:21;;;;;;;6.80;3.58;;;;;;;;;;5054859;28;20033;-62
2022/10/16 07:16:48;;;;;;;6.45;3.58;;;;;;;;;;5032856;28;20058;-62
2022/10/16 07:19:15;;;;;;;7.57;4.40;;;;;;;;;;5064991;28;20040;-63
2022/10/16 07:21:41;;;;;;;7.88;3.97;;;;;;;;;;5066585;28;20028;-62
2022/10/16 07:24:11;;;;;;;9.27;3.75;;;;;;;;;;5044213;28;20107;-62
2022/10/16 07:26:38;;;;;;;11.18;3.47;;;;;;;;;;5029693;28;20098;-63
2022/10/16 07:29:04;;;;;;;6.40;3.47;;;;;;;;;;5034848;28;20039;-63
2022/10/16 07:31:29;;;;;;;10.02;3.58;;;;;;;;;;5043860;28;20041;-63
2022/10/16 07:33:55;;;;;;;6.20;3.20;;;;;;;;;;5045209;28;20028;-62
2022/10/16 07:36:21;;;;;;;6.00;3.08;;;;;;;;;;5045211;28;20032;-62
2022/10/16 07:38:47;;;;;;;6.22;3.08;;;;;;;;;;5047517;28;20124;-62
2022/10/16 07:41:17;;;;;;;4.15;2.70;;;;;;;;;;5049513;28;20036;-62
2022/10/16 07:43:51;;;;;;;4.38;2.28;;;;;;;;;;5049157;28;20045;-63
2022/10/16 07:46:17;;;;;;;4.85;2.78;;;;;;;;;;5049498;28;20068;-62
2022/10/16 07:48:46;;;;;;;4.68;2.60;;;;;;;;;;5047953;28;20032;-62
2022/10/16 07:51:11;;;;;;;5.53;2.72;;;;;;;;;;5039365;28;20101;-63
2022/10/16 07:53:37;;;;;;;5.93;2.40;;;;;;;;;;5042294;28;20549;-62
2022/10/16 07:56:05;;;;;;;8.00;2.38;;;;;;;;;;5037839;28;20041;-62
2022/10/16 07:58:31;;;;;;;7.10;2.72;;;;;;;;;;5048495;28;20033;-62
2022/10/16 08:00:58;;;;;;;4.32;2.40;;;;;;;;;;5043432;28;20032;-62
2022/10/16 08:03:24;;;;;;;4.65;2.42;;;;;;;;;;5056654;28;20017;-62
2022/10/16 08:05:50;;;;;;;5.63;2.30;;;;;;;;;;5063485;28;20535;-62
2022/10/16 08:08:16;;;;;;;4.70;2.40;;;;;;;;;;5065209;28;20557;-62
2022/10/16 08:10:42;;;;;;;4.35;2.50;;;;;;;;;;5066171;28;20036;-62
2022/10/16 08:13:07;;;;;;;6.15;2.80;;;;;;;;;;5062459;28;20017;-62
2022/10/16 08:15:33;;;;;;;4.13;2.20;;;;;;;;;;5028605;28;20594;-62
2022/10/16 08:18:02;;;;;;;4.53;2.75;;;;;;;;;;5029465;28;20071;-62
2022/10/16 08:20:28;;;;;;;4.78;2.10;;;;;;;;;;5029988;28;20094;-63
2022/10/16 08:22:54;;;;;;;6.05;2.53;;;;;;;;;;5048180;28;20036;-62
2022/10/16 08:25:20;;;;;;;4.38;2.22;;;;;;;;;;5048016;28;20041;-62
2022/10/16 08:27:45;;;;;;;7.20;2.10;;;;;;;;;;5049238;28;20028;-62
2022/10/16 08:30:11;;;;;;;4.45;2.20;;;;;;;;;;5048506;28;20132;-63
2022/10/16 08:32:37;;;;;;;6.18;2.72;;;;;;;;;;5046264;28;20029;-62
2022/10/16 08:35:02;;;;;;;5.53;2.00;;;;;;;;;;5048655;28;20108;-62
2022/10/16 08:37:32;;;;;;;4.05;2.47;;;;;;;;;;5048993;28;20075;-63
2022/10/16 08:39:57;;;;;;;2.78;1.90;;;;;;;;;;5035693;28;20529;-62
2022/10/16 08:42:33;;;;;;;4.35;2.25;;;;;;;;;;5026326;28;20021;-62
2022/10/16 08:45:08;;;;;;;6.78;1.85;;;;;;;;;;5028749;28;20116;-62
2022/10/16 08:47:49;;;;;;;9.18;2.10;;;;;;;;;;5030442;28;20072;-62
2022/10/16 08:50:23;;;;;;;3.03;1.70;;;;;;;;;;5044828;28;20048;-62
2022/10/16 08:52:49;;;;;;;7.28;1.90;;;;;;;;;;5040080;28;20120;-62
2022/10/16 08:55:42;;;;;;;3.60;1.88;;;;;;;;;;5046084;28;20032;-62
2022/10/16 08:58:19;;;;;;;9.90;2.00;;;;;;;;;;5053679;28;20081;-62
2022/10/16 09:00:47;;;;;;;2.67;1.80;;;;;;;;;;5057217;28;20021;-62
2022/10/16 09:03:26;;;;;;;3.17;1.70;;;;;;;;;;5043874;28;20029;-62
2022/10/16 09:06:18;;;;;;;3.92;2.22;;;;;;;;;;5060171;28;20498;-62
2022/10/16 09:08:56;;;;;;;3.42;1.80;;;;;;;;;;5043807;28;20043;-62
2022/10/16 09:11:36;;;;;;;3.15;1.67;;;;;;;;;;5066447;28;20123;-62
2022/10/16 09:14:21;;;;;;;3.65;1.77;;;;;;;;;;5067167;28;20038;-62
2022/10/16 09:16:53;;;;;;;5.20;1.88;;;;;;;;;;5067987;28;20036;-62
2022/10/16 09:19:36;;;;;;;6.78;1.92;;;;;;;;;;5066124;28;20033;-62
2022/10/16 09:22:17;;;;;;;3.80;1.75;;;;;;;;;;5067347;28;20060;-62
2022/10/16 09:24:43;;;;;;;4.53;1.75;;;;;;;;;;5067670;28;20632;-62
2022/10/16 09:27:14;;;;;;;4.63;2.28;;;;;;;;;;5068167;28;20123;-62
2022/10/16 09:29:40;;;;;;;7.35;1.90;;;;;;;;;;5067470;28;20169;-62
2022/10/16 09:32:19;;;;;;;7.63;1.90;;;;;;;;;;5067413;28;20029;-62
2022/10/16 09:34:50;;;;;;;5.70;1.75;;;;;;;;;;5066738;28;20025;-62
2022/10/16 09:37:19;;;;;;;6.13;1.75;;;;;;;;;;5065909;28;20032;-62
2022/10/16 09:39:50;;;;;;;7.13;1.80;;;;;;;;;;5055998;28;20116;-62
2022/10/16 09:42:18;;;;;;;3.58;1.65;;;;;;;;;;5047397;28;20571;-62
2022/10/16 09:44:48;;;;;;;3.15;1.70;;;;;;;;;;5044489;28;20072;-62
2022/10/16 09:47:42;;;;;;;6.05;1.65;;;;;;;;;;5049656;28;20033;-62
2022/10/16 09:50:24;;;;;;;;;;;;;;;;;;5041427;28;20580;-62
2022/10/16 09:52:50;;;;;;;4.30;1.52;;;;;;;;;;5042011;28;19913;-62
2022/10/16 09:55:17;;;;;;;2.97;1.55;;;;;;;;;;5047664;28;20071;-62
2022/10/16 09:57:53;;;;;;;5.57;1.73;;;;;;;;;;5046516;28;20409;-62
2022/10/16 10:00:20;;;;;;;5.07;1.50;;;;;;;;;;5044051;28;20052;-62
2022/10/16 10:02:46;;;;;;;2.75;1.30;;;;;;;;;;5042639;28;20071;-62
2022/10/16 10:05:41;;;;;;;2.85;1.60;;;;;;;;;;5046546;28;20047;-62
2022/10/16 10:08:07;;;;;;;5.97;1.38;;;;;;;;;;5041686;28;20041;-62
2022/10/16 10:10:42;;;;;;;2.05;1.38;;;;;;;;;;5042246;28;20525;-62
2022/10/16 10:13:20;;;;;;;2.42;1.15;;;;;;;;;;5053739;28;20039;-63
2022/10/16 10:15:45;;;;;;;3.22;1.00;;;;;;;;;;5046215;28;20383;-62
2022/10/16 10:18:19;;;;;;;5.25;1.23;;;;;;;;;;5045822;28;20040;-63
2022/10/16 10:20:45;;;;;;;3.15;1.30;;;;;;;;;;5037745;28;20038;-62
2022/10/16 10:23:32;;;;;;;3.00;1.40;;;;;;;;;;5027434;28;20033;-62
2022/10/16 10:26:11;;;;;;;3.80;1.40;;;;;;;;;;5026636;28;20052;-62
2022/10/16 10:28:54;;;;;;;3.90;1.10;;;;;;;;;;5026157;28;20037;-63
2022/10/16 10:31:27;;;;;;;3.40;1.10;;;;;;;;;;5040124;28;20047;-62
2022/10/16 10:33:59;;;;;;;4.03;1.00;;;;;;;;;;5047030;28;20563;-62
2022/10/16 10:36:28;;;;;;;2.45;0.98;;;;;;;;;;5046502;28;20024;-62
2022/10/16 10:39:19;;;;;;;2.25;0.88;;;;;;;;;;5044910;28;20124;-62
2022/10/16 10:41:44;;;;;;;1.42;1.00;;;;;;;;;;5045226;28;20041;-62
2022/10/16 10:44:15;;;;;;;2.20;1.17;;;;;;;;;;5049181;28;20047;-62
2022/10/16 10:46:44;;;;;;;2.42;0.98;;;;;;;;;;5046044;28;20135;-62
2022/10/16 10:49:27;;;;;;;2.15;1.00;;;;;;;;;;5046265;28;20557;-62
2022/10/16 10:52:20;;;;;;;3.00;1.17;;;;;;;;;;5044878;28;20029;-62
2022/10/16 10:54:54;;;;;;;3.10;1.27;;;;;;;;;;5039692;28;20042;-62
2022/10/16 10:57:29;;;;;;;3.92;1.30;;;;;;;;;;5044853;28;20509;-62
2022/10/16 10:59:54;;;;;;;3.83;1.58;;;;;;;;;;5030925;28;20067;-62
2022/10/16 11:02:41;;;;;;;3.25;1.40;;;;;;;;;;5029538;28;20044;-62
2022/10/16 11:05:30;;;;;;;2.10;1.20;;;;;;;;;;5031069;28;20037;-62
2022/10/16 11:08:02;;;;;;;2.88;1.30;;;;;;;;;;5041079;28;20411;-62
2022/10/16 11:10:56;;;;;;;4.65;1.70;;;;;;;;;;5026146;28;20116;-62
2022/10/16 11:13:37;;;;;;;4.28;1.75;;;;;;;;;;5028117;28;20145;-62
2022/10/16 11:16:15;;;;;;;4.93;1.90;;;;;;;;;;5031016;28;20014;-62
2022/10/16 11:18:43;;;;;;;4.03;2.08;;;;;;;;;;5048555;28;20104;-62
2022/10/16 11:21:14;;;;;;;2.47;1.30;;;;;;;;;;5049932;28;20040;-62
2022/10/16 11:23:55;;;;;;;2.00;1.23;;;;;;;;;;5047572;28;20029;-63
2022/10/16 11:26:25;;;;;;;2.58;1.38;;;;;;;;;;5046695;28;20086;-62
2022/10/16 11:28:56;;;;;;;2.60;1.50;;;;;;;;;;5047037;28;20111;-62
2022/10/16 11:31:31;;;;;;;2.80;1.10;;;;;;;;;;5044066;28;20410;-62
2022/10/16 11:34:20;;;;;;;2.00;1.20;;;;;;;;;;5049690;28;20013;-63
2022/10/16 11:37:02;;;;;;;4.53;1.10;;;;;;;;;;5047636;28;20410;-63
2022/10/16 11:39:29;;;;;;;7.22;1.23;;;;;;;;;;5045814;28;20033;-63
2022/10/16 11:42:10;;;;;;;3.45;1.13;;;;;;;;;;5045324;28;20857;-63
2022/10/16 11:44:56;;;;;;;2.78;1.20;;;;;;;;;;5051147;28;20041;-63
2022/10/16 11:47:34;;;;;;;1.50;1.08;;;;;;;;;;5047654;28;20040;-62
2022/10/16 11:50:20;;;;;;;3.45;1.33;;;;;;;;;;5039315;28;20026;-63
2022/10/16 11:52:58;;;;;;;3.28;1.50;;;;;;;;;;5037311;28;20033;-63
2022/10/16 11:55:31;;;;;;;2.85;1.60;;;;;;;;;;5041385;28;20159;-62
2022/10/16 11:58:07;;;;;;;4.88;1.33;;;;;;;;;;5042239;28;20066;-63
2022/10/16 12:00:44;;;;;;;1.17;1.00;;;;;;;;;;5051864;28;20025;-63
2022/10/16 12:03:43;;;;;;;1.13;0.80;;;;;;;;;;5046690;28;20119;-63
2022/10/16 12:06:43;;;;;;;3.28;1.08;;;;;;;;;;5068995;28;20144;-63
2022/10/16 12:09:30;;;;;;;3.45;1.50;;;;;;;;;;5066798;28;20513;-62
2022/10/16 12:11:56;;;;;;;3.00;1.15;;;;;;;;;;5039171;28;20518;-63
2022/10/16 12:14:33;;;;;;;2.70;1.10;;;;;;;;;;5047968;28;20044;-63
2022/10/16 12:17:24;;;;;;;2.45;1.17;;;;;;;;;;5047835;28;20041;-62
2022/10/16 12:20:13;;;;;;;1.98;1.27;;;;;;;;;;5044623;28;20029;-63
2022/10/16 12:22:48;;;;;;;4.68;1.10;;;;;;;;;;5046649;28;20124;-63
2022/10/16 12:25:35;;;;;;;1.75;1.08;;;;;;;;;;5039775;28;20029;-63
2022/10/16 12:28:06;;;;;;;3.05;1.05;;;;;;;;;;5043651;28;20022;-63
2022/10/16 12:30:34;;;;;;;4.53;1.02;;;;;;;;;;5031599;28;20052;-63
2022/10/16 12:33:31;;;;;;;2.67;0.90;;;;;;;;;;5028010;28;20116;-63
2022/10/16 12:35:59;;;;;;;2.13;0.85;;;;;;;;;;5019013;28;20067;-63
2022/10/16 12:38:33;;;;;;;2.20;0.70;;;;;;;;;;5028226;28;20116;-63
2022/10/16 12:41:04;;;;;;;3.13;0.90;;;;;;;;;;5029061;28;20025;-63
2022/10/16 12:43:38;;;;;;;0.93;0.80;;;;;;;;;;5028555;28;20121;-63
2022/10/16 12:46:07;;;;;;;1.70;0.82;;;;;;;;;;5028880;28;20087;-63
2022/10/16 12:48:34;;;;;;;2.40;0.93;;;;;;;;;;5031654;28;20036;-63
2022/10/16 12:51:33;;;;;;;2.10;0.80;;;;;;;;;;5046705;28;20029;-62
2022/10/16 12:54:16;;;;;;;2.92;1.02;;;;;;;;;;5044205;28;20914;-63
2022/10/16 12:57:04;;;;;;;4.60;1.00;;;;;;;;;;5049068;28;20033;-63
2022/10/16 12:59:51;;;;;;;1.83;1.00;;;;;;;;;;5048474;28;20047;-63
2022/10/16 13:02:42;;;;;;;4.05;1.27;;;;;;;;;;5046923;28;20545;-63
2022/10/16 13:05:10;;;;;;;3.60;1.20;;;;;;;;;;5044417;28;20030;-63
2022/10/16 13:07:53;;;;;;;2.20;1.00;;;;;;;;;;5066139;28;20036;-63
2022/10/16 13:10:37;;;;;;;4.72;1.00;;;;;;;;;;5067140;28;20036;-63
2022/10/16 13:13:13;;;;;;;3.08;1.10;;;;;;;;;;5066959;28;20032;-63
2022/10/16 13:16:04;;;;;;;2.15;0.88;;;;;;;;;;5053180;28;20017;-63
2022/10/16 13:18:34;;;;;;;2.35;1.20;;;;;;;;;;5067568;28;20047;-63
2022/10/16 13:21:29;;;;;;;1.83;0.95;;;;;;;;;;5066570;28;20061;-63
2022/10/16 13:24:03;;;;;;;3.92;1.10;;;;;;;;;;5047368;28;20067;-63
2022/10/16 13:26:40;;;;;;;3.88;0.85;;;;;;;;;;5062356;28;20055;-62
2022/10/16 13:29:06;;;;;;;1.80;1.08;;;;;;;;;;5061144;28;20063;-63
2022/10/16 13:31:33;;;;;;;4.00;0.90;;;;;;;;;;5031359;28;20096;-63
2022/10/16 13:34:00;;;;;;;1.60;0.90;;;;;;;;;;5027892;28;20079;-63
2022/10/16 13:36:33;;;;;;;1.52;0.90;;;;;;;;;;5027603;28;20019;-63
2022/10/16 13:39:17;;;;;;;;;;;;;;;;;;5032213;28;20056;-62
2022/10/16 13:41:43;;;;;;;;;;;;;;;;;;5047900;28;19955;-63
2022/10/16 13:44:19;;;;;;;1.77;0.77;;;;;;;;;;5047441;28;19968;-62
2022/10/16 13:46:45;;;;;;;5.60;0.90;;;;;;;;;;5047116;28;20045;-63
2022/10/16 13:49:16;;;;;;;4.03;0.93;;;;;;;;;;5047276;28;20036;-63
2022/10/16 13:51:54;;;;;;;2.22;0.85;;;;;;;;;;5047726;28;20052;-63
2022/10/16 13:54:19;;;;;;;1.90;0.68;;;;;;;;;;5045791;28;20036;-63
2022/10/16 13:56:44;;;;;;;1.00;0.75;;;;;;;;;;5045995;28;20818;-63
2022/10/16 13:59:32;;;;;;;2.35;0.82;;;;;;;;;;5046963;28;20037;-62
2022/10/16 14:01:58;;;;;;;2.10;1.00;;;;;;;;;;5044974;28;20119;-62
2022/10/16 14:04:24;;;;;;;1.20;0.70;;;;;;;;;;5047288;28;20453;-63
2022/10/16 14:06:51;;;;;;;2.78;0.85;;;;;;;;;;5045495;28;20029;-63
2022/10/16 14:09:19;;;;;;;4.10;1.15;;;;;;;;;;5047612;28;20041;-63
2022/10/16 14:11:49;;;;;;;2.90;1.38;;;;;;;;;;5045394;28;20063;-62
2022/10/16 14:14:15;;;;;;;0.98;0.73;;;;;;;;;;5044033;28;20053;-63
2022/10/16 14:16:43;;;;;;;1.92;0.95;;;;;;;;;;5042533;28;20041;-63
2022/10/16 14:19:29;;;;;;;0.75;0.70;;;;;;;;;;5048853;28;20616;-63
2022/10/16 14:21:56;;;;;;;2.72;0.68;;;;;;;;;;5041000;28;20631;-63
2022/10/16 14:24:30;;;;;;;2.88;1.10;;;;;;;;;;5045002;28;20052;-63
2022/10/16 14:26:56;;;;;;;1.33;1.00;;;;;;;;;;5045011;28;20124;-63
2022/10/16 14:29:23;;;;;;;1.20;0.70;;;;;;;;;;5044461;28;20155;-63
2022/10/16 14:32:03;;;;;;;1.98;0.77;;;;;;;;;;5044613;28;20040;-63
2022/10/16 14:34:34;;;;;;;0.73;0.73;;;;;;;;;;5045469;28;20102;-63
2022/10/16 14:37:18;;;;;;;1.55;0.70;;;;;;;;;;5043736;28;20036;-63
2022/10/16 14:39:49;;;;;;;1.75;0.90;;;;;;;;;;5045850;28;20029;-63
2022/10/16 14:42:18;;;;;;;2.47;0.70;;;;;;;;;;5044818;28;20497;-63
2022/10/16 14:44:44;;;;;;;1.73;0.60;;;;;;;;;;5046385;28;20666;-63
2022/10/16 14:47:14;;;;;;;1.38;0.80;;;;;;;;;;5045250;28;20029;-63
2022/10/16 14:49:41;;;;;;;1.00;0.75;;;;;;;;;;5046040;28;20029;-63
2022/10/16 14:52:12;;;;;;;0.70;0.70;;;;;;;;;;5038553;28;20032;-63
2022/10/16 14:54:38;;;;;;;2.63;0.88;;;;;;;;;;5035734;28;20067;-63
2022/10/16 14:57:03;;;;;;;2.95;0.85;;;;;;;;;;5034213;28;20427;-63
2022/10/16 14:59:41;;;;;;;1.55;0.73;;;;;;;;;;5039487;28;20055;-63
2022/10/16 15:02:30;;;;;;;1.35;0.70;;;;;;;;;;5043090;28;20544;-63
2022/10/16 15:04:56;;;;;;;0.98;0.80;;;;;;;;;;5040337;28;20044;-63